createdAt,value
2023-09-29T00:00:19.338Z,100812.84
2023-09-29T00:02:48.629Z,100817.44
2023-09-29T00:05:20.165Z,100821.63
2023-09-29T00:07:47.704Z,100820.03
2023-09-29T00:10:19.046Z,100815.19
2023-09-29T00:12:47.442Z,100811.72
2023-09-29T00:15:14.830Z,100803.81
2023-09-29T00:17:42.832Z,100808.25
2023-09-29T00:20:26.719Z,100801.75
2023-09-29T00:22:56.183Z,100803.41
2023-09-29T00:25:23.614Z,100812.50
2023-09-29T00:27:51.597Z,100804.13
2023-09-29T00:30:18.966Z,100812.66
2023-09-29T00:32:54.599Z,100801.50
2023-09-29T00:35:29.687Z,100789.50
2023-09-29T00:38:00.528Z,100791.94
2023-09-29T00:40:29.057Z,100795.16
2023-09-29T00:42:59.063Z,100796.00
2023-09-29T00:45:27.927Z,100797.13
2023-09-29T00:47:58.088Z,100795.97
2023-09-29T00:50:27.685Z,100784.69
2023-09-29T00:52:59.924Z,100789.28
2023-09-29T00:55:31.482Z,100784.94
2023-09-29T00:58:00.109Z,100784.16
2023-09-29T01:00:47.694Z,100784.00
2023-09-29T01:03:16.863Z,100792.03
2023-09-29T01:05:46.511Z,100791.09
2023-09-29T01:08:25.140Z,100796.56
2023-09-29T01:10:54.326Z,100788.56
2023-09-29T01:13:24.007Z,100791.63
2023-09-29T01:15:51.437Z,100790.34
2023-09-29T01:18:18.590Z,100786.31
2023-09-29T01:20:45.906Z,100782.00
2023-09-29T01:23:13.179Z,100781.13
2023-09-29T01:25:41.507Z,100777.97
2023-09-29T01:28:10.331Z,100777.97
2023-09-29T01:30:43.185Z,100776.59
2023-09-29T01:33:10.534Z,100777.00
2023-09-29T01:35:37.698Z,100779.19
2023-09-29T01:38:04.880Z,100785.50
2023-09-29T01:40:31.919Z,100791.84
2023-09-29T01:43:00.026Z,100797.63
2023-09-29T01:45:28.067Z,100798.56
2023-09-29T01:47:56.104Z,100807.50
2023-09-29T01:50:24.334Z,100809.13
2023-09-29T01:52:52.469Z,100805.63
2023-09-29T01:55:21.497Z,100808.25
2023-09-29T01:57:49.858Z,100812.34
2023-09-29T02:00:25.395Z,100800.66
2023-09-29T02:02:55.725Z,100815.25
2023-09-29T02:05:24.779Z,100811.78
2023-09-29T02:07:53.240Z,100808.72
2023-09-29T02:10:22.925Z,100810.53
2023-09-29T02:12:55.791Z,100803.09
2023-09-29T02:15:23.184Z,100804.84
2023-09-29T02:17:51.209Z,100807.63
2023-09-29T02:20:19.848Z,100800.22
2023-09-29T02:22:48.392Z,100805.56
2023-09-29T02:25:18.681Z,100811.81
2023-09-29T02:27:45.904Z,100808.78
2023-09-29T02:30:13.805Z,100803.03
2023-09-29T02:32:45.186Z,100820.03
2023-09-29T02:35:12.450Z,100827.91
2023-09-29T02:37:40.169Z,100828.06
2023-09-29T02:40:11.092Z,100817.94
2023-09-29T02:42:38.989Z,100818.00
2023-09-29T02:45:09.475Z,100830.09
2023-09-29T02:47:37.221Z,100814.69
2023-09-29T02:50:05.725Z,100813.31
2023-09-29T02:52:33.290Z,100823.50
2023-09-29T02:55:00.545Z,100817.28
2023-09-29T02:57:27.884Z,100816.31
2023-09-29T02:59:56.048Z,100828.28
2023-09-29T03:02:23.292Z,100829.19
2023-09-29T03:04:52.263Z,100838.31
2023-09-29T03:07:19.386Z,100832.38
2023-09-29T03:09:47.039Z,100839.03
2023-09-29T03:12:14.520Z,100833.28
2023-09-29T03:14:41.564Z,100826.06
2023-09-29T03:17:08.569Z,100836.66
2023-09-29T03:19:38.051Z,100840.47
2023-09-29T03:22:05.188Z,100838.78
2023-09-29T03:24:32.265Z,100843.13
2023-09-29T03:26:59.508Z,100848.06
2023-09-29T03:29:26.586Z,100848.06
2023-09-29T03:31:56.042Z,100854.06
2023-09-29T03:34:24.883Z,100846.31
2023-09-29T03:36:51.930Z,100847.53
2023-09-29T03:39:20.063Z,100845.47
2023-09-29T03:41:47.442Z,100849.50
2023-09-29T03:44:14.572Z,100835.91
2023-09-29T03:46:41.728Z,100838.63
2023-09-29T03:49:11.591Z,100833.06
2023-09-29T03:51:39.944Z,100838.84
2023-09-29T03:54:10.930Z,100838.91
2023-09-29T03:56:38.147Z,100834.13
2023-09-29T03:59:05.315Z,100831.31
2023-09-29T04:01:33.598Z,100827.19
2023-09-29T04:04:02.611Z,100821.19
2023-09-29T04:06:30.467Z,100829.31
2023-09-29T04:08:57.654Z,100826.31
2023-09-29T04:11:25.079Z,100820.06
2023-09-29T04:13:52.069Z,100826.31
2023-09-29T04:16:19.837Z,100818.31
2023-09-29T04:18:47.244Z,100818.22
2023-09-29T04:21:19.783Z,100820.19
2023-09-29T04:23:48.234Z,100824.38
2023-09-29T04:26:27.110Z,100833.06
2023-09-29T04:28:54.548Z,100824.19
2023-09-29T04:31:21.702Z,100826.44
2023-09-29T04:33:48.796Z,100816.72
2023-09-29T04:36:15.872Z,100821.66
2023-09-29T04:38:42.952Z,100827.25
2023-09-29T04:41:10.339Z,100831.09
2023-09-29T04:43:37.379Z,100824.91
2023-09-29T04:46:04.480Z,100831.75
2023-09-29T04:48:31.589Z,100838.78
2023-09-29T04:50:59.457Z,100835.50
2023-09-29T04:53:26.581Z,100835.91
2023-09-29T04:55:53.730Z,100839.38
2023-09-29T04:58:20.773Z,100836.88
2023-09-29T05:00:48.251Z,100850.41
2023-09-29T05:03:15.450Z,100850.94
2023-09-29T05:05:42.549Z,100849.59
2023-09-29T05:08:09.546Z,100850.22
2023-09-29T05:10:36.616Z,100851.81
2023-09-29T05:13:04.010Z,100857.78
2023-09-29T05:15:31.211Z,100855.72
2023-09-29T05:17:58.447Z,100856.75
2023-09-29T05:20:25.459Z,100857.84
2023-09-29T05:22:52.508Z,100862.56
2023-09-29T05:25:19.531Z,100860.53
2023-09-29T05:27:46.715Z,100865.13
2023-09-29T05:30:14.053Z,100869.50
2023-09-29T05:32:41.193Z,100867.56
2023-09-29T05:35:09.188Z,100869.84
2023-09-29T05:37:36.260Z,100862.38
2023-09-29T05:40:04.420Z,100878.59
2023-09-29T05:42:49.246Z,100878.72
2023-09-29T05:45:18.875Z,100877.72
2023-09-29T05:47:48.445Z,100885.25
2023-09-29T05:50:19.442Z,100883.34
2023-09-29T05:53:03.576Z,100886.84
2023-09-29T05:55:35.963Z,100874.59
2023-09-29T05:58:03.174Z,100871.41
2023-09-29T06:00:31.271Z,100886.72
2023-09-29T06:03:01.109Z,100895.00
2023-09-29T06:05:28.701Z,100892.75
2023-09-29T06:07:58.602Z,100905.00
2023-09-29T06:10:26.967Z,100903.09
2023-09-29T06:12:54.877Z,100896.72
2023-09-29T06:15:21.901Z,100908.34
2023-09-29T06:17:49.265Z,100899.66
2023-09-29T06:20:16.900Z,100910.78
2023-09-29T06:22:43.970Z,100898.22
2023-09-29T06:25:11.170Z,100913.25
2023-09-29T06:27:38.192Z,100912.25
2023-09-29T06:30:05.893Z,100910.97
2023-09-29T06:32:33.237Z,100912.13
2023-09-29T06:35:00.389Z,100914.16
2023-09-29T06:37:27.397Z,100912.47
2023-09-29T06:39:54.394Z,100907.22
2023-09-29T06:42:21.445Z,100914.44
2023-09-29T06:44:48.807Z,100909.25
2023-09-29T06:47:16.030Z,100912.25
2023-09-29T06:49:43.151Z,100909.28
2023-09-29T06:52:10.383Z,100911.03
2023-09-29T06:54:37.450Z,100909.47
2023-09-29T06:57:04.654Z,100916.78
2023-09-29T06:59:31.756Z,100899.69
2023-09-29T07:01:58.944Z,100908.03
2023-09-29T07:04:26.125Z,100905.22
2023-09-29T07:06:53.210Z,100901.44
2023-09-29T07:09:20.363Z,100902.91
2023-09-29T07:11:47.448Z,100903.28
2023-09-29T07:14:14.467Z,100906.84
2023-09-29T07:16:44.018Z,100913.97
2023-09-29T07:19:13.654Z,100912.06
2023-09-29T07:21:41.800Z,100920.72
2023-09-29T07:24:09.671Z,100914.53
2023-09-29T07:26:37.157Z,100918.94
2023-09-29T07:29:06.007Z,100928.88
2023-09-29T07:31:37.762Z,100923.78
2023-09-29T07:34:04.979Z,100926.06
2023-09-29T07:36:34.555Z,100924.47
2023-09-29T07:39:02.161Z,100931.44
2023-09-29T07:41:29.244Z,100948.41
2023-09-29T07:43:56.412Z,100940.97
2023-09-29T07:46:23.753Z,100945.41
2023-09-29T07:48:51.002Z,100939.44
2023-09-29T07:51:18.904Z,100942.31
2023-09-29T07:53:46.134Z,100945.75
2023-09-29T07:56:13.440Z,100951.09
2023-09-29T07:58:40.482Z,100944.25
2023-09-29T08:01:07.953Z,100941.69
2023-09-29T08:03:35.544Z,100938.47
2023-09-29T08:06:02.739Z,100937.75
2023-09-29T08:08:30.049Z,100942.13
2023-09-29T08:10:57.161Z,100937.41
2023-09-29T08:13:25.616Z,100938.00
2023-09-29T08:15:53.126Z,100929.50
2023-09-29T08:18:20.259Z,100930.16
2023-09-29T08:20:47.983Z,100930.28
2023-09-29T08:23:15.106Z,100940.16
2023-09-29T08:25:44.555Z,100931.91
2023-09-29T08:28:11.608Z,100930.88
2023-09-29T08:30:38.825Z,100936.13
2023-09-29T08:33:18.889Z,100928.69
2023-09-29T08:35:52.375Z,100937.56
2023-09-29T08:38:20.680Z,100934.84
2023-09-29T08:40:47.889Z,100939.09
2023-09-29T08:43:16.688Z,100932.22
2023-09-29T08:45:44.381Z,100930.50
2023-09-29T08:48:13.672Z,100930.81
2023-09-29T08:50:45.036Z,100918.16
2023-09-29T08:53:12.520Z,100918.34
2023-09-29T08:55:40.225Z,100922.13
2023-09-29T08:58:08.843Z,100925.34
2023-09-29T09:00:38.676Z,100924.69
2023-09-29T09:03:06.591Z,100921.88
2023-09-29T09:05:33.758Z,100915.78
2023-09-29T09:08:02.877Z,100907.94
2023-09-29T09:10:35.662Z,100910.28
2023-09-29T09:13:06.851Z,100916.69
2023-09-29T09:15:34.096Z,100912.53
2023-09-29T09:18:01.689Z,100911.22
2023-09-29T09:20:29.288Z,100899.44
2023-09-29T09:23:02.442Z,100909.94
2023-09-29T09:25:33.429Z,100906.66
2023-09-29T09:28:00.440Z,100908.84
2023-09-29T09:30:27.666Z,100896.06
2023-09-29T09:32:55.025Z,100910.47
2023-09-29T09:35:30.285Z,100906.53
2023-09-29T09:37:58.708Z,100907.91
2023-09-29T09:40:26.676Z,100912.09
2023-09-29T09:43:04.494Z,100921.22
2023-09-29T09:45:39.022Z,100915.44
2023-09-29T09:48:10.110Z,100909.97
2023-09-29T09:50:43.531Z,100918.06
2023-09-29T09:53:15.873Z,100919.16
2023-09-29T09:55:57.088Z,100917.34
2023-09-29T09:58:24.957Z,100913.81
2023-09-29T10:00:56.497Z,100909.44
2023-09-29T10:03:26.525Z,100910.34
2023-09-29T10:05:55.024Z,100906.34
2023-09-29T10:08:33.689Z,100909.31
2023-09-29T10:11:15.139Z,100914.72
2023-09-29T10:13:46.538Z,100912.13
2023-09-29T10:16:26.813Z,100902.94
2023-09-29T10:18:59.739Z,100905.25
2023-09-29T10:21:31.963Z,100906.34
2023-09-29T10:24:02.152Z,100899.13
2023-09-29T10:26:30.085Z,100898.78
2023-09-29T10:29:10.786Z,100905.75
2023-09-29T10:31:38.004Z,100898.00
2023-09-29T10:34:05.159Z,100894.84
2023-09-29T10:36:32.405Z,100893.22
2023-09-29T10:39:00.743Z,100889.16
2023-09-29T10:41:36.391Z,100892.53
2023-09-29T10:44:05.914Z,100892.28
2023-09-29T10:46:33.276Z,100890.53
2023-09-29T10:49:00.610Z,100892.44
2023-09-29T10:51:34.987Z,100897.22
2023-09-29T10:54:09.743Z,100890.69
2023-09-29T10:56:38.601Z,100896.81
2023-09-29T10:59:10.304Z,100882.22
2023-09-29T11:01:37.870Z,100870.88
2023-09-29T11:04:10.186Z,100868.22
2023-09-29T11:06:53.795Z,100879.44
2023-09-29T11:09:23.062Z,100876.22
2023-09-29T11:11:50.421Z,100885.22
2023-09-29T11:14:18.381Z,100872.69
2023-09-29T11:16:59.303Z,100870.28
2023-09-29T11:19:31.894Z,100876.16
2023-09-29T11:22:03.179Z,100865.41
2023-09-29T11:24:44.734Z,100860.72
2023-09-29T11:27:12.829Z,100853.09
2023-09-29T11:29:40.946Z,100864.31
2023-09-29T11:32:09.291Z,100870.47
2023-09-29T11:34:36.345Z,100859.78
2023-09-29T11:37:03.386Z,100863.06
2023-09-29T11:39:31.401Z,100874.09
2023-09-29T11:41:59.279Z,100857.75
2023-09-29T11:44:27.347Z,100857.97
2023-09-29T11:46:55.214Z,100858.84
2023-09-29T11:49:22.225Z,100851.78
2023-09-29T11:51:54.065Z,100850.69
2023-09-29T11:54:21.217Z,100851.88
2023-09-29T11:56:48.223Z,100847.69
2023-09-29T11:59:15.384Z,100845.69
2023-09-29T12:01:43.327Z,100847.22
2023-09-29T12:04:10.517Z,100850.94
2023-09-29T12:06:40.525Z,100851.72
2023-09-29T12:09:07.568Z,100842.44
2023-09-29T12:11:34.920Z,100836.69
2023-09-29T12:14:05.420Z,100850.59
2023-09-29T12:16:32.638Z,100838.56
2023-09-29T12:18:59.645Z,100837.44
2023-09-29T12:21:26.834Z,100841.59
2023-09-29T12:23:54.487Z,100838.97
2023-09-29T12:26:21.790Z,100834.09
2023-09-29T12:28:52.292Z,100837.81
2023-09-29T12:31:19.485Z,100827.94
2023-09-29T12:33:47.175Z,100824.31
2023-09-29T12:36:14.383Z,100834.22
2023-09-29T12:38:41.441Z,100829.94
2023-09-29T12:41:09.382Z,100823.47
2023-09-29T12:43:36.865Z,100821.63
2023-09-29T12:46:04.116Z,100824.47
2023-09-29T12:48:31.798Z,100817.38
2023-09-29T12:50:59.091Z,100819.16
2023-09-29T12:53:26.118Z,100828.69
2023-09-29T12:55:53.146Z,100824.47
2023-09-29T12:58:20.184Z,100825.22
2023-09-29T13:00:47.231Z,100820.78
2023-09-29T13:03:14.280Z,100823.06
2023-09-29T13:05:41.352Z,100810.97
2023-09-29T13:08:08.499Z,100817.44
2023-09-29T13:10:39.013Z,100823.28
2023-09-29T13:13:07.077Z,100813.66
2023-09-29T13:15:35.122Z,100816.47
2023-09-29T13:18:02.365Z,100826.44
2023-09-29T13:20:29.705Z,100822.34
2023-09-29T13:22:57.220Z,100827.75
2023-09-29T13:25:24.359Z,100819.94
2023-09-29T13:27:51.913Z,100814.06
2023-09-29T13:30:19.116Z,100822.22
2023-09-29T13:32:46.617Z,100821.34
2023-09-29T13:35:13.790Z,100827.22
2023-09-29T13:37:42.368Z,100828.84
2023-09-29T13:40:09.934Z,100821.66
2023-09-29T13:42:37.741Z,100824.56
2023-09-29T13:45:06.368Z,100817.59
2023-09-29T13:47:34.300Z,100823.84
2023-09-29T13:50:02.322Z,100821.97
2023-09-29T13:52:29.773Z,100820.91
2023-09-29T13:54:56.817Z,100813.28
2023-09-29T13:57:25.076Z,100814.16
2023-09-29T13:59:52.624Z,100814.50
2023-09-29T14:02:19.748Z,100813.34
2023-09-29T14:04:46.900Z,100817.56
2023-09-29T14:07:14.039Z,100811.06
2023-09-29T14:09:41.365Z,100818.34
2023-09-29T14:12:12.012Z,100813.50
2023-09-29T14:14:41.450Z,100808.69
2023-09-29T14:17:08.551Z,100818.69
2023-09-29T14:19:36.865Z,100815.69
2023-09-29T14:22:04.311Z,100812.78
2023-09-29T14:24:32.916Z,100811.06
2023-09-29T14:27:00.648Z,100806.94
2023-09-29T14:29:27.682Z,100815.31
2023-09-29T14:31:55.013Z,100819.81
2023-09-29T14:34:22.115Z,100820.66
2023-09-29T14:36:49.228Z,100827.72
2023-09-29T14:39:16.883Z,100814.16
2023-09-29T14:41:45.414Z,100817.97
2023-09-29T14:44:12.982Z,100814.16
2023-09-29T14:46:39.963Z,100820.97
2023-09-29T14:49:06.967Z,100818.94
2023-09-29T14:51:33.960Z,100824.31
2023-09-29T14:54:01.454Z,100817.66
2023-09-29T14:56:28.519Z,100826.97
2023-09-29T14:58:55.583Z,100825.03
2023-09-29T15:01:23.472Z,100828.38
2023-09-29T15:03:50.675Z,100829.19
2023-09-29T15:06:18.213Z,100828.38
2023-09-29T15:08:45.365Z,100828.69
2023-09-29T15:11:18.810Z,100837.16
2023-09-29T15:13:46.943Z,100833.78
2023-09-29T15:16:17.616Z,100838.91
2023-09-29T15:18:52.483Z,100835.31
2023-09-29T15:21:20.527Z,100843.50
2023-09-29T15:23:55.816Z,100831.44
2023-09-29T15:26:23.868Z,100831.28
2023-09-29T15:28:51.428Z,100830.41
2023-09-29T15:31:19.021Z,100840.84
2023-09-29T15:33:46.348Z,100840.00
2023-09-29T15:36:13.834Z,100835.41
2023-09-29T15:38:41.163Z,100845.53
2023-09-29T15:41:11.642Z,100850.63
2023-09-29T15:43:38.699Z,100849.00
2023-09-29T15:46:11.658Z,100853.00
2023-09-29T15:48:41.076Z,100853.88
2023-09-29T15:51:08.983Z,100854.72
2023-09-29T15:53:37.310Z,100853.84
2023-09-29T15:56:05.789Z,100854.38
2023-09-29T15:58:34.467Z,100857.97
2023-09-29T16:01:02.900Z,100862.69
2023-09-29T16:03:30.592Z,100865.44
2023-09-29T16:06:02.329Z,100864.63
2023-09-29T16:08:29.490Z,100868.69
2023-09-29T16:11:02.343Z,100867.22
2023-09-29T16:13:33.258Z,100860.25
2023-09-29T16:16:01.734Z,100871.63
2023-09-29T16:18:28.964Z,100877.47
2023-09-29T16:20:56.116Z,100876.06
2023-09-29T16:23:23.143Z,100873.97
2023-09-29T16:25:52.436Z,100876.69
2023-09-29T16:28:22.773Z,100878.72
2023-09-29T16:30:51.993Z,100887.56
2023-09-29T16:33:19.351Z,100881.47
2023-09-29T16:35:46.484Z,100883.84
2023-09-29T16:38:13.516Z,100881.78
2023-09-29T16:40:40.988Z,100882.94
2023-09-29T16:43:08.045Z,100885.88
2023-09-29T16:45:35.450Z,100886.97
2023-09-29T16:48:02.792Z,100882.66
2023-09-29T16:50:29.954Z,100879.75
2023-09-29T16:52:57.233Z,100887.38
2023-09-29T16:55:24.577Z,100892.47
2023-09-29T16:57:51.745Z,100888.56
2023-09-29T17:00:19.407Z,100890.59
2023-09-29T17:02:46.514Z,100894.19
2023-09-29T17:05:13.599Z,100894.25
2023-09-29T17:07:40.615Z,100894.06
2023-09-29T17:10:08.369Z,100897.16
2023-09-29T17:12:35.558Z,100895.25
2023-09-29T17:15:03.728Z,100897.84
2023-09-29T17:17:30.934Z,100898.69
2023-09-29T17:19:57.993Z,100890.38
2023-09-29T17:22:25.017Z,100895.91
2023-09-29T17:24:52.056Z,100896.09
2023-09-29T17:27:19.406Z,100896.50
2023-09-29T17:29:47.865Z,100900.91
2023-09-29T17:32:16.366Z,100896.66
2023-09-29T17:34:43.975Z,100900.00
2023-09-29T17:37:11.073Z,100899.03
2023-09-29T17:39:38.266Z,100902.25
2023-09-29T17:42:05.378Z,100895.88
2023-09-29T17:44:32.444Z,100892.56
2023-09-29T17:46:59.436Z,100892.19
2023-09-29T17:49:27.264Z,100890.22
2023-09-29T17:51:54.548Z,100891.41
2023-09-29T17:54:21.594Z,100896.69
2023-09-29T17:56:48.717Z,100884.94
2023-09-29T17:59:16.344Z,100894.88
2023-09-29T18:01:43.453Z,100892.56
2023-09-29T18:04:10.896Z,100887.69
2023-09-29T18:06:38.728Z,100894.94
2023-09-29T18:09:06.730Z,100894.88
2023-09-29T18:11:36.037Z,100901.72
2023-09-29T18:14:03.399Z,100912.41
2023-09-29T18:16:31.352Z,100904.41
2023-09-29T18:18:58.617Z,100904.06
2023-09-29T18:21:25.902Z,100903.47
2023-09-29T18:23:52.920Z,100903.38
2023-09-29T18:26:21.161Z,100891.31
2023-09-29T18:28:48.732Z,100898.78
2023-09-29T18:31:15.762Z,100891.63
2023-09-29T18:33:42.988Z,100897.56
2023-09-29T18:36:10.148Z,100886.13
2023-09-29T18:38:37.218Z,100885.78
2023-09-29T18:41:04.290Z,100884.72
2023-09-29T18:43:31.383Z,100882.44
2023-09-29T18:46:03.067Z,100880.19
2023-09-29T18:48:30.413Z,100877.66
2023-09-29T18:51:02.824Z,100874.91
2023-09-29T18:53:29.908Z,100872.72
2023-09-29T18:55:57.945Z,100878.47
2023-09-29T18:58:25.512Z,100874.19
2023-09-29T19:00:52.812Z,100881.81
2023-09-29T19:03:19.937Z,100878.38
2023-09-29T19:05:47.068Z,100876.16
2023-09-29T19:08:14.896Z,100874.00
2023-09-29T19:10:44.016Z,100867.03
2023-09-29T19:13:11.140Z,100866.94
2023-09-29T19:15:43.564Z,100869.19
2023-09-29T19:18:10.819Z,100865.97
2023-09-29T19:20:38.580Z,100858.91
2023-09-29T19:23:05.880Z,100863.97
2023-09-29T19:25:34.456Z,100870.72
2023-09-29T19:28:01.928Z,100864.81
2023-09-29T19:30:29.617Z,100857.63
2023-09-29T19:32:57.872Z,100861.53
2023-09-29T19:35:25.875Z,100847.94
2023-09-29T19:37:53.660Z,100861.78
2023-09-29T19:40:21.161Z,100858.13
2023-09-29T19:42:49.586Z,100856.78
2023-09-29T19:45:17.254Z,100851.19
2023-09-29T19:47:44.417Z,100857.34
2023-09-29T19:50:13.144Z,100854.88
2023-09-29T19:52:40.385Z,100853.44
2023-09-29T19:55:09.619Z,100861.09
2023-09-29T19:57:37.953Z,100857.75
2023-09-29T20:00:06.583Z,100850.53
2023-09-29T20:02:39.461Z,100848.50
2023-09-29T20:05:07.800Z,100851.22
2023-09-29T20:07:34.836Z,100852.06
2023-09-29T20:10:01.888Z,100859.00
2023-09-29T20:12:29.083Z,100854.72
2023-09-29T20:14:56.262Z,100848.78
2023-09-29T20:17:23.995Z,100856.19
2023-09-29T20:19:51.083Z,100848.97
2023-09-29T20:22:18.086Z,100848.50
2023-09-29T20:24:45.137Z,100847.84
2023-09-29T20:27:12.155Z,100839.88
2023-09-29T20:29:39.675Z,100841.25
2023-09-29T20:32:07.209Z,100835.75
2023-09-29T20:34:34.210Z,100837.66
2023-09-29T20:37:01.498Z,100837.97
2023-09-29T20:39:28.757Z,100840.75
2023-09-29T20:41:56.982Z,100844.78
2023-09-29T20:44:24.104Z,100846.69
2023-09-29T20:46:51.099Z,100841.03
2023-09-29T20:49:19.370Z,100837.84
2023-09-29T20:51:48.210Z,100836.22
2023-09-29T20:54:15.366Z,100844.28
2023-09-29T20:56:43.335Z,100840.25
2023-09-29T20:59:10.316Z,100841.97
2023-09-29T21:01:37.660Z,100841.84
2023-09-29T21:04:07.852Z,100845.16
2023-09-29T21:06:36.721Z,100840.13
2023-09-29T21:09:03.909Z,100839.69
2023-09-29T21:11:34.099Z,100835.41
2023-09-29T21:14:01.144Z,100841.94
2023-09-29T21:16:28.469Z,100831.50
2023-09-29T21:18:55.478Z,100839.66
2023-09-29T21:21:22.565Z,100837.22
2023-09-29T21:23:49.660Z,100833.31
2023-09-29T21:26:16.752Z,100833.88
2023-09-29T21:28:43.830Z,100839.81
2023-09-29T21:31:16.072Z,100834.38
2023-09-29T21:33:43.532Z,100838.28
2023-09-29T21:36:15.127Z,100832.66
2023-09-29T21:38:43.147Z,100833.34
2023-09-29T21:41:10.687Z,100829.25
2023-09-29T21:43:37.794Z,100830.69
2023-09-29T21:46:04.836Z,100838.47
2023-09-29T21:48:32.242Z,100832.94
2023-09-29T21:50:59.782Z,100824.91
2023-09-29T21:53:28.055Z,100827.47
2023-09-29T21:55:55.923Z,100837.22
2023-09-29T21:58:24.335Z,100833.06
2023-09-29T22:00:53.596Z,100826.28
2023-09-29T22:03:23.527Z,100833.38
2023-09-29T22:05:53.845Z,100838.81
2023-09-29T22:08:22.421Z,100832.59
2023-09-29T22:10:50.759Z,100827.47
2023-09-29T22:13:21.089Z,100827.06
2023-09-29T22:15:51.938Z,100828.66
2023-09-29T22:18:19.473Z,100825.72
2023-09-29T22:20:47.517Z,100830.25
2023-09-29T22:23:15.705Z,100829.91
2023-09-29T22:25:43.214Z,100824.03
2023-09-29T22:28:11.418Z,100824.06
2023-09-29T22:30:38.875Z,100820.78
2023-09-29T22:33:07.562Z,100824.13
2023-09-29T22:35:37.170Z,100825.84
2023-09-29T22:38:08.497Z,100818.31
2023-09-29T22:40:35.692Z,100815.88
2023-09-29T22:43:04.108Z,100819.88
2023-09-29T22:45:31.522Z,100818.63
2023-09-29T22:47:58.721Z,100821.09
2023-09-29T22:50:27.668Z,100822.88
2023-09-29T22:52:54.977Z,100821.41
2023-09-29T22:55:24.223Z,100817.94
2023-09-29T22:57:51.495Z,100812.47
2023-09-29T23:00:18.709Z,100811.00
2023-09-29T23:02:46.441Z,100811.00
2023-09-29T23:05:13.795Z,100808.81
2023-09-29T23:07:40.839Z,100814.00
2023-09-29T23:10:12.309Z,100809.41
2023-09-29T23:12:41.823Z,100803.13
2023-09-29T23:15:10.089Z,100803.75
2023-09-29T23:17:37.714Z,100803.38
2023-09-29T23:20:11.473Z,100805.56
2023-09-29T23:22:40.801Z,100800.84
2023-09-29T23:25:12.613Z,100799.53
2023-09-29T23:27:39.757Z,100798.84
2023-09-29T23:30:10.247Z,100804.91
2023-09-29T23:32:38.703Z,100790.22
2023-09-29T23:35:06.038Z,100796.78
2023-09-29T23:37:33.168Z,100799.53
2023-09-29T23:40:00.948Z,100803.88
2023-09-29T23:42:28.525Z,100802.28
2023-09-29T23:44:55.555Z,100800.66
2023-09-29T23:47:22.927Z,100803.19
2023-09-29T23:49:49.906Z,100798.88
2023-09-29T23:52:17.493Z,100793.84
2023-09-29T23:54:44.987Z,100792.25
2023-09-29T23:57:12.151Z,100783.53
2023-09-29T23:59:39.208Z,100784.16
